Time;durP1;ratioP1;P1;durP2;ratioP2;P2;SDS_P1;SDS_P2;PMS_P1;PMS_P2;Temp;Humidity;BMP_temperature;BMP_pressure;BME280_temperature;BME280_humidity;BME280_pressure;Samples;Min_cycle;Max_cycle;Signal;HPM_P1;HPM_P2
2022/11/18 00:00:56;;;;;;;13.45;9.48;;;9.90;69.10;;;;;;6283733;22;20010;-96
2022/11/18 00:03:22;;;;;;;14.32;9.35;;;9.90;69.00;;;;;;6282681;22;20003;-96
2022/11/18 00:05:56;;;;;;;15.90;9.35;;;10.00;69.00;;;;;;6284139;22;20008;-95
2022/11/18 00:08:23;;;;;;;16.77;10.32;;;10.00;69.00;;;;;;6284021;22;20014;-96
2022/11/18 00:10:49;;;;;;;20.50;10.98;;;10.00;69.00;;;;;;6283403;22;20007;-95
2022/11/18 00:16:07;;;;;;;16.27;10.05;;;10.00;69.10;;;;;;6310736;22;20037;-95
2022/11/18 00:18:33;;;;;;;16.80;11.05;;;10.10;69.10;;;;;;6284585;22;20007;-95
2022/11/18 00:21:10;;;;;;;18.15;11.13;;;10.10;69.20;;;;;;6283390;22;20041;-95
2022/11/18 00:23:37;;;;;;;19.60;11.98;;;10.20;69.10;;;;;;6283695;22;20069;-96
2022/11/18 00:26:07;;;;;;;17.15;10.70;;;10.20;69.10;;;;;;6287967;22;20004;-96
2022/11/18 00:28:34;;;;;;;16.52;10.50;;;10.20;69.00;;;;;;6286212;22;20415;-96
2022/11/18 00:31:05;;;;;;;23.33;11.70;;;10.30;69.00;;;;;;6285288;22;20018;-96
2022/11/18 00:33:31;;;;;;;17.20;11.98;;;10.30;68.90;;;;;;6285042;22;20027;-95
2022/11/18 00:35:57;;;;;;;18.20;11.70;;;10.30;68.80;;;;;;6285131;22;20003;-96
2022/11/18 00:38:24;;;;;;;15.48;10.18;;;10.30;68.70;;;;;;6289736;22;20010;-93
2022/11/18 00:41:02;;;;;;;17.17;10.90;;;10.40;68.60;;;;;;6289170;22;20014;-94
2022/11/18 00:43:28;;;;;;;18.13;10.70;;;10.40;68.60;;;;;;6303700;22;20011;-94
2022/11/18 00:45:54;;;;;;;15.48;10.18;;;10.40;68.50;;;;;;6309054;22;19991;-96
2022/11/18 00:48:21;;;;;;;14.05;9.63;;;10.50;68.50;;;;;;6300286;22;20077;-95
2022/11/18 00:50:54;;;;;;;18.60;11.52;;;10.50;68.40;;;;;;6287304;22;20011;-95
2022/11/18 00:53:21;;;;;;;20.48;11.75;;;10.50;68.20;;;;;;6286529;22;19996;-95
2022/11/18 00:55:47;;;;;;;19.83;11.88;;;10.50;68.00;;;;;;6292155;22;20011;-95
2022/11/18 00:58:14;;;;;;;19.38;11.90;;;10.40;67.80;;;;;;6286722;22;20003;-95
2022/11/18 01:00:44;;;;;;;18.08;10.88;;;10.40;67.80;;;;;;6289410;22;20007;-95
2022/11/18 01:03:11;;;;;;;16.63;10.73;;;10.40;68.00;;;;;;6308677;22;20022;-95
2022/11/18 01:05:38;;;;;;;14.15;9.45;;;10.40;68.00;;;;;;6309245;22;19998;-94
2022/11/18 01:08:06;;;;;;;13.93;9.60;;;10.40;68.00;;;;;;6306914;22;20043;-94
2022/11/18 01:10:32;;;;;;;15.45;10.30;;;10.40;68.10;;;;;;6287611;22;19999;-94
2022/11/18 01:15:44;;;;;;;21.42;12.68;;;10.40;68.40;;;;;;6335710;22;20006;-94
2022/11/18 01:18:10;;;;;;;17.30;11.27;;;10.40;68.50;;;;;;6297072;22;20467;-93
2022/11/18 01:20:36;;;;;;;22.98;13.25;;;10.50;68.60;;;;;;6281904;22;20078;-93
2022/11/18 01:23:02;;;;;;;24.38;14.40;;;10.50;68.60;;;;;;6282745;22;20011;-95
2022/11/18 01:25:29;;;;;;;32.15;17.83;;;10.50;68.70;;;;;;6282647;22;20013;-93
2022/11/18 01:27:55;;;;;;;33.63;19.00;;;10.50;68.70;;;;;;6282185;22;20003;-92
2022/11/18 01:30:21;;;;;;;30.88;18.60;;;10.60;68.80;;;;;;6282403;22;20042;-95
2022/11/18 01:32:47;;;;;;;35.53;19.42;;;10.60;68.70;;;;;;6281979;22;20094;-94
2022/11/18 01:35:13;;;;;;;34.20;18.95;;;10.60;68.70;;;;;;6282105;22;20385;-95
2022/11/18 01:37:39;;;;;;;34.53;19.80;;;10.60;68.70;;;;;;6282498;22;20027;-92
2022/11/18 01:40:07;;;;;;;40.70;22.00;;;10.70;68.70;;;;;;6282486;22;20011;-93
2022/11/18 01:42:33;;;;;;;37.28;22.42;;;10.70;68.60;;;;;;6282448;22;20008;-92
2022/11/18 01:45:26;;;;;;;35.20;20.50;;;10.70;68.60;;;;;;6282317;22;20011;-92
2022/11/18 01:48:06;;;;;;;27.98;17.88;;;10.80;68.50;;;;;;6284318;22;20438;-92
2022/11/18 01:50:35;;;;;;;25.80;15.98;;;10.80;68.30;;;;;;6284484;22;20015;-92
2022/11/18 01:53:10;;;;;;;20.58;12.85;;;10.80;68.10;;;;;;6284352;22;20007;-93
2022/11/18 01:55:40;;;;;;;20.92;12.68;;;10.80;68.00;;;;;;6284347;22;20011;-93
2022/11/18 01:58:16;;;;;;;21.05;13.48;;;10.80;67.90;;;;;;6284235;22;19995;-91
2022/11/18 02:00:42;;;;;;;17.30;11.18;;;10.80;67.80;;;;;;6283405;22;20007;-93
2022/11/18 02:03:08;;;;;;;21.90;12.65;;;10.80;67.80;;;;;;6284574;22;20052;-92
2022/11/18 02:05:35;;;;;;;20.40;12.77;;;10.70;67.70;;;;;;6284193;22;20007;-93
2022/11/18 02:08:01;;;;;;;17.92;12.38;;;10.70;67.70;;;;;;6284019;22;20003;-92
2022/11/18 02:10:28;;;;;;;19.45;12.57;;;10.70;67.70;;;;;;6284435;22;20046;-92
2022/11/18 02:12:54;;;;;;;25.00;14.20;;;10.70;67.80;;;;;;6283964;22;20011;-92
2022/11/18 02:15:34;;;;;;;27.15;15.65;;;10.70;67.80;;;;;;6283964;22;20003;-92
2022/11/18 02:18:19;;;;;;;22.08;13.68;;;10.70;67.70;;;;;;6284066;22;20026;-93
2022/11/18 02:20:46;;;;;;;23.00;13.88;;;10.70;67.60;;;;;;6284070;22;20011;-93
2022/11/18 02:23:38;;;;;;;23.42;14.68;;;10.80;67.50;;;;;;6284128;22;20007;-93
2022/11/18 02:26:55;;;;;;;23.13;14.15;;;10.70;67.40;;;;;;6283946;22;20014;-92
2022/11/18 02:29:29;;;;;;;26.08;15.07;;;10.70;67.30;;;;;;6161871;23;20005;-93
2022/11/18 02:32:00;;;;;;;26.75;15.73;;;10.80;67.40;;;;;;6162228;23;20051;-93
2022/11/18 02:34:58;;;;;;;25.55;14.45;;;10.80;67.40;;;;;;6162159;23;20417;-93
2022/11/18 02:37:40;;;;;;;30.38;15.23;;;10.80;67.40;;;;;;6162163;23;20009;-93
2022/11/18 02:40:43;;;;;;;31.52;16.75;;;10.80;67.40;;;;;;6162115;23;20005;-92
2022/11/18 02:43:21;;;;;;;24.77;14.40;;;10.80;67.40;;;;;;6126299;23;20110;-93
2022/11/18 02:45:50;;;;;;;27.65;15.52;;;10.90;67.40;;;;;;6101824;23;20010;-92
2022/11/18 02:48:19;;;;;;;27.85;15.13;;;10.90;67.40;;;;;;6119251;23;20018;-92
2022/11/18 02:50:47;;;;;;;25.35;13.85;;;10.90;67.30;;;;;;6102918;23;20022;-92
2022/11/18 02:53:18;;;;;;;22.55;13.85;;;10.90;67.30;;;;;;6098352;23;20458;-92
2022/11/18 02:55:45;;;;;;;24.27;13.57;;;10.90;67.30;;;;;;6102121;23;20018;-92
2022/11/18 02:58:14;;;;;;;29.10;14.15;;;10.90;67.30;;;;;;6098153;23;20013;-92
2022/11/18 03:00:40;;;;;;;24.85;14.23;;;10.90;67.30;;;;;;6101133;23;20104;-93
2022/11/18 03:03:25;;;;;;;28.52;13.85;;;10.90;67.20;;;;;;6097972;23;20007;-92
2022/11/18 03:06:09;;;;;;;;;;;10.90;67.20;;;;;;6159810;23;20110;-92
2022/11/18 03:08:51;;;;;;;23.33;13.68;;;11.00;67.30;;;;;;6210626;23;19951;-93
2022/11/18 03:11:30;;;;;;;34.58;16.80;;;11.00;67.10;;;;;;6192806;23;20021;-93
2022/11/18 03:14:15;;;;;;;32.45;16.08;;;11.00;67.00;;;;;;6187495;23;20341;-92
2022/11/18 03:17:03;;;;;;;30.15;16.67;;;10.90;67.00;;;;;;6217999;22;20012;-92
2022/11/18 03:19:44;;;;;;;31.40;17.02;;;11.00;67.10;;;;;;6252917;22;20003;-92
2022/11/18 03:22:18;;;;;;;25.92;15.05;;;11.00;67.10;;;;;;6253115;22;20008;-92
2022/11/18 03:25:13;;;;;;;28.83;14.68;;;10.90;67.10;;;;;;6252779;22;20007;-93
2022/11/18 03:27:44;;;;;;;;;;;11.00;67.30;;;;;;6177245;22;20064;-94
2022/11/18 03:30:21;;;;;;;27.75;15.15;;;11.00;67.40;;;;;;6252572;22;20323;-95
2022/11/18 03:33:01;;;;;;;43.35;17.17;;;11.00;67.20;;;;;;6253240;22;20043;-92
2022/11/18 03:35:31;;;;;;;34.13;16.90;;;11.10;67.20;;;;;;6253627;22;20062;-93
2022/11/18 03:38:03;;;;;;;32.80;17.80;;;11.10;67.20;;;;;;6252915;22;20095;-92
2022/11/18 03:40:32;;;;;;;29.65;16.42;;;11.10;67.20;;;;;;6252758;22;20102;-92
2022/11/18 03:43:04;;;;;;;32.10;17.45;;;11.10;68.00;;;;;;6253071;22;20015;-92
2022/11/18 03:45:36;;;;;;;29.48;16.02;;;11.10;67.30;;;;;;6252631;22;20006;-93
2022/11/18 03:48:16;;;;;;;33.88;17.58;;;11.10;67.30;;;;;;6275663;22;20377;-93
2022/11/18 03:50:48;;;;;;;27.60;16.13;;;11.10;67.10;;;;;;6285477;22;20499;-92
2022/11/18 03:53:16;;;;;;;29.15;15.95;;;11.10;67.10;;;;;;6283226;22;20453;-93
2022/11/18 03:55:48;;;;;;;27.42;14.45;;;11.10;67.10;;;;;;6283073;22;20003;-94
2022/11/18 03:58:24;;;;;;;27.90;14.57;;;11.10;67.10;;;;;;6283188;22;20008;-92
2022/11/18 04:00:57;;;;;;;26.17;15.93;;;11.20;67.20;;;;;;6283023;22;20003;-92
2022/11/18 04:03:24;;;;;;;25.25;14.40;;;11.20;67.10;;;;;;6283168;22;20012;-93
2022/11/18 04:05:57;;;;;;;25.25;14.73;;;11.20;67.20;;;;;;6282216;22;20032;-92
2022/11/18 04:08:29;;;;;;;25.77;14.63;;;11.20;67.00;;;;;;6282269;22;20007;-92
2022/11/18 04:11:09;;;;;;;23.85;13.85;;;11.20;66.90;;;;;;6282996;22;20041;-92
2022/11/18 04:13:37;;;;;;;25.08;13.20;;;11.20;66.80;;;;;;6283404;22;20027;-92
2022/11/18 04:16:03;;;;;;;23.02;13.63;;;11.20;66.70;;;;;;6283274;22;20014;-93
2022/11/18 04:18:28;;;;;;;23.23;12.93;;;11.30;66.80;;;;;;6283204;22;20003;-92
2022/11/18 04:20:54;;;;;;;21.58;12.25;;;11.30;66.80;;;;;;6282981;22;20377;-93
2022/11/18 04:23:20;;;;;;;19.42;11.60;;;11.30;66.80;;;;;;6283198;22;20007;-92
2022/11/18 04:25:46;;;;;;;18.55;12.65;;;11.30;66.80;;;;;;6283153;22;20068;-92
2022/11/18 04:28:11;;;;;;;22.52;13.27;;;11.30;66.80;;;;;;6283129;22;20323;-92
2022/11/18 04:30:37;;;;;;;26.25;12.98;;;11.30;66.70;;;;;;6282829;22;20487;-92
2022/11/18 04:33:04;;;;;;;19.75;11.80;;;11.30;66.70;;;;;;6283091;22;20443;-93
2022/11/18 04:35:29;;;;;;;31.95;16.30;;;11.30;66.70;;;;;;6283338;22;20003;-92
2022/11/18 04:37:55;;;;;;;38.55;18.90;;;11.30;66.70;;;;;;6282832;22;20030;-92
2022/11/18 04:40:21;;;;;;;43.53;19.95;;;11.30;66.50;;;;;;6282962;22;20003;-93
2022/11/18 04:42:47;;;;;;;44.78;20.85;;;11.30;66.50;;;;;;6283869;22;20008;-93
2022/11/18 04:45:14;;;;;;;37.92;19.60;;;11.30;66.50;;;;;;6282945;22;20076;-92
2022/11/18 04:47:40;;;;;;;46.38;21.58;;;11.20;66.50;;;;;;6283508;22;20149;-92
2022/11/18 04:50:06;;;;;;;39.88;19.90;;;11.20;66.50;;;;;;6283595;22;20106;-93
2022/11/18 04:52:32;;;;;;;44.90;21.23;;;11.20;66.60;;;;;;6283172;22;20041;-93
2022/11/18 04:54:57;;;;;;;46.50;20.40;;;11.20;66.80;;;;;;6284043;22;20023;-92
2022/11/18 04:57:23;;;;;;;44.83;20.67;;;11.20;67.00;;;;;;6293066;22;20051;-91
2022/11/18 04:59:49;;;;;;;45.42;19.98;;;11.20;67.10;;;;;;6308817;22;20018;-91
2022/11/18 05:02:15;;;;;;;51.63;23.80;;;11.20;67.10;;;;;;6305772;22;20338;-92
2022/11/18 05:04:41;;;;;;;46.92;22.88;;;11.20;67.20;;;;;;6302154;22;19988;-91
2022/11/18 05:07:07;;;;;;;49.95;22.30;;;11.20;67.20;;;;;;6309031;22;20014;-92
2022/11/18 05:09:33;;;;;;;51.35;23.88;;;11.20;67.20;;;;;;6307731;22;20011;-94
2022/11/18 05:14:44;;;;;;;54.25;26.90;;;11.30;67.30;;;;;;6318380;22;20437;-92
2022/11/18 05:17:10;;;;;;;59.95;27.88;;;11.30;67.20;;;;;;6285089;22;20014;-94
2022/11/18 05:19:39;;;;;;;49.00;24.63;;;11.30;67.20;;;;;;6285425;22;20003;-93
2022/11/18 05:22:06;;;;;;;58.40;28.58;;;11.30;67.20;;;;;;6286897;22;20061;-94
2022/11/18 05:24:32;;;;;;;57.58;27.77;;;11.30;67.30;;;;;;6299940;22;19991;-92
2022/11/18 05:26:58;;;;;;;69.38;29.48;;;11.30;67.30;;;;;;6311890;22;20059;-93
2022/11/18 05:29:23;;;;;;;57.50;25.63;;;11.30;67.20;;;;;;6312169;22;19995;-94
2022/11/18 05:31:49;;;;;;;45.92;22.73;;;11.30;67.00;;;;;;6304811;22;20015;-94
2022/11/18 05:34:16;;;;;;;54.38;24.52;;;11.40;67.00;;;;;;6290779;22;20003;-92
2022/11/18 05:36:42;;;;;;;44.50;23.42;;;11.30;66.90;;;;;;6289529;22;20007;-93
2022/11/18 05:39:08;;;;;;;38.78;20.27;;;11.30;66.90;;;;;;6285582;22;20500;-93
2022/11/18 05:44:20;;;;;;;37.58;19.50;;;11.40;66.90;;;;;;6312865;22;20064;-93
2022/11/18 05:46:46;;;;;;;34.65;18.60;;;11.30;66.80;;;;;;6283375;22;20422;-94
2022/11/18 05:49:11;;;;;;;30.60;17.08;;;11.40;66.90;;;;;;6257155;22;20015;-93
2022/11/18 05:51:37;;;;;;;40.72;19.38;;;11.40;66.90;;;;;;6256340;22;20016;-93
2022/11/18 05:54:05;;;;;;;40.78;20.00;;;11.40;66.90;;;;;;6256120;22;20409;-93
2022/11/18 05:56:36;;;;;;;46.67;22.35;;;11.40;66.90;;;;;;6257290;22;20015;-92
2022/11/18 05:59:01;;;;;;;66.68;29.23;;;11.40;66.90;;;;;;6255489;22;20008;-93
2022/11/18 06:01:33;;;;;;;72.03;33.80;;;11.40;66.90;;;;;;6255694;22;20366;-94
2022/11/18 06:04:02;;;;;;;76.85;34.05;;;11.40;66.90;;;;;;6255426;22;20031;-92
2022/11/18 06:06:28;;;;;;;78.20;35.33;;;11.40;66.90;;;;;;6255257;22;20150;-93
2022/11/18 06:09:06;;;;;;;79.78;36.20;;;11.40;67.00;;;;;;6255265;22;20004;-93
2022/11/18 06:11:38;;;;;;;88.13;36.40;;;11.40;66.90;;;;;;6255415;22;20000;-93
2022/11/18 06:14:14;;;;;;;84.35;36.67;;;11.50;66.90;;;;;;6254919;22;20426;-93
2022/11/18 06:16:44;;;;;;;79.50;35.03;;;11.40;66.90;;;;;;6255536;22;20012;-93
2022/11/18 06:19:10;;;;;;;85.53;35.97;;;11.40;66.80;;;;;;6255496;22;20002;-93
2022/11/18 06:21:36;;;;;;;82.10;34.97;;;11.50;66.80;;;;;;6254816;22;20086;-94
2022/11/18 06:24:02;;;;;;;73.45;31.73;;;11.40;66.80;;;;;;6254993;22;20003;-93
2022/11/18 06:26:28;;;;;;;65.95;28.77;;;11.50;66.80;;;;;;6255584;22;20043;-93
2022/11/18 06:28:55;;;;;;;68.68;29.05;;;11.50;66.80;;;;;;6256192;22;20078;-92
2022/11/18 06:31:21;;;;;;;67.05;30.58;;;11.50;66.80;;;;;;6257693;22;20090;-93
2022/11/18 06:33:46;;;;;;;72.85;31.40;;;11.50;66.90;;;;;;6252963;22;20003;-93
2022/11/18 06:36:12;;;;;;;61.17;27.02;;;11.50;66.80;;;;;;6254135;22;20008;-93
2022/11/18 06:38:38;;;;;;;64.10;28.73;;;11.60;66.80;;;;;;6253441;22;20008;-94
2022/11/18 06:41:04;;;;;;;60.30;28.23;;;11.60;66.90;;;;;;6254615;22;20010;-93
2022/11/18 06:43:40;;;;;;;58.35;26.92;;;11.50;66.70;;;;;;6253409;22;20010;-94
2022/11/18 06:48:55;;;;;;;56.42;25.38;;;11.60;66.90;;;;;;6280977;22;20146;-92
2022/11/18 06:51:21;;;;;;;58.85;26.08;;;11.60;66.90;;;;;;6258554;22;20011;-92
2022/11/18 06:53:47;;;;;;;64.50;28.15;;;11.60;67.00;;;;;;6279194;22;19995;-92
2022/11/18 06:56:15;;;;;;;57.85;28.00;;;11.60;66.80;;;;;;6272277;22;20011;-92
2022/11/18 06:58:41;;;;;;;57.25;26.75;;;11.60;66.80;;;;;;6255500;22;20078;-93
2022/11/18 07:01:22;;;;;;;60.50;28.17;;;11.50;66.70;;;;;;6254873;22;20014;-93
2022/11/18 07:03:48;;;;;;;51.30;24.35;;;11.50;66.70;;;;;;6254704;22;20000;-92
2022/11/18 07:06:16;;;;;;;51.70;24.60;;;11.60;66.90;;;;;;6255182;22;20007;-95
2022/11/18 07:08:43;;;;;;;53.88;25.80;;;11.60;66.90;;;;;;6254068;22;20540;-94
2022/11/18 07:11:12;;;;;;;56.70;24.73;;;11.60;67.00;;;;;;6254653;22;20019;-93
2022/11/18 07:13:38;;;;;;;52.70;23.98;;;11.60;67.00;;;;;;6254595;22;20010;-93
2022/11/18 07:16:09;;;;;;;52.58;24.67;;;11.60;67.10;;;;;;6256358;22;20008;-93
2022/11/18 07:18:37;;;;;;;55.40;26.33;;;11.60;67.10;;;;;;6254319;22;20004;-93
2022/11/18 07:21:09;;;;;;;42.85;23.10;;;11.60;67.20;;;;;;6256894;22;20014;-93
2022/11/18 07:23:35;;;;;;;47.42;23.48;;;11.50;67.20;;;;;;6256519;22;20011;-93
2022/11/18 07:26:03;;;;;;;41.88;20.67;;;11.50;67.30;;;;;;6255293;22;20004;-95
2022/11/18 07:28:30;;;;;;;48.40;22.42;;;11.50;67.50;;;;;;6256024;22;20035;-93
2022/11/18 07:31:17;;;;;;;32.65;19.02;;;11.50;67.50;;;;;;6255385;22;20004;-94
2022/11/18 07:33:43;;;;;;;37.92;19.40;;;11.50;67.70;;;;;;6254082;22;20011;-93
2022/11/18 07:36:14;;;;;;;39.53;20.65;;;11.50;67.90;;;;;;6254543;22;20008;-94
2022/11/18 07:38:41;;;;;;;43.90;21.38;;;11.50;68.10;;;;;;6255105;22;20012;-93
2022/11/18 07:41:12;;;;;;;35.45;19.42;;;11.50;67.90;;;;;;6256212;22;20000;-92
2022/11/18 07:43:38;;;;;;;40.50;20.23;;;11.50;67.80;;;;;;6254870;22;20004;-93
2022/11/18 07:46:17;;;;;;;38.40;18.92;;;11.50;67.80;;;;;;6255097;22;20011;-93
2022/11/18 07:48:45;;;;;;;31.83;17.33;;;11.50;67.90;;;;;;6284641;22;20086;-93
2022/11/18 07:51:12;;;;;;;32.75;17.60;;;11.50;68.00;;;;;;6286938;22;20080;-92
2022/11/18 07:53:38;;;;;;;33.72;17.33;;;11.50;68.10;;;;;;6286475;22;20023;-94
2022/11/18 07:56:05;;;;;;;27.23;15.40;;;11.50;68.30;;;;;;6287417;22;20030;-93
2022/11/18 07:58:31;;;;;;;28.67;14.07;;;11.50;68.40;;;;;;6286812;22;19999;-92
2022/11/18 08:00:57;;;;;;;25.67;13.45;;;11.50;68.50;;;;;;6284700;22;20078;-94
2022/11/18 08:03:27;;;;;;;17.45;10.68;;;11.50;68.50;;;;;;6286605;22;20068;-93
2022/11/18 08:06:00;;;;;;;16.52;10.02;;;11.50;68.20;;;;;;6285231;22;20011;-93
2022/11/18 08:08:26;;;;;;;16.52;9.38;;;11.50;68.20;;;;;;6286279;22;20009;-91
2022/11/18 08:11:00;;;;;;;13.98;8.95;;;11.50;68.30;;;;;;6285925;22;20015;-92
2022/11/18 08:13:27;;;;;;;20.13;10.75;;;11.60;68.40;;;;;;6285452;22;20026;-93
2022/11/18 08:15:54;;;;;;;15.48;9.93;;;11.50;67.90;;;;;;6285876;22;20018;-93
2022/11/18 08:18:20;;;;;;;16.65;10.10;;;11.50;67.80;;;;;;6286700;22;20133;-94
2022/11/18 08:20:46;;;;;;;16.15;9.48;;;11.50;68.30;;;;;;6288348;22;20003;-93
2022/11/18 08:23:13;;;;;;;19.65;11.48;;;11.60;68.80;;;;;;6285984;22;20011;-94
2022/11/18 08:25:41;;;;;;;16.05;9.70;;;11.60;68.90;;;;;;6285990;22;20007;-94
2022/11/18 08:28:07;;;;;;;17.00;11.05;;;11.60;68.80;;;;;;6284670;22;20056;-94
2022/11/18 08:30:34;;;;;;;18.30;11.32;;;11.70;69.10;;;;;;6287019;22;20011;-93
2022/11/18 08:33:00;;;;;;;17.60;11.15;;;11.70;69.00;;;;;;6285313;22;20011;-93
2022/11/18 08:35:28;;;;;;;16.15;10.35;;;11.80;69.20;;;;;;6285536;22;19995;-94
2022/11/18 08:37:54;;;;;;;14.43;9.52;;;11.90;69.40;;;;;;6286240;22;20011;-94
2022/11/18 08:40:20;;;;;;;18.85;10.93;;;11.90;69.50;;;;;;6284888;22;20072;-94
2022/11/18 08:42:46;;;;;;;17.40;10.90;;;12.00;69.60;;;;;;6287812;22;19999;-93
2022/11/18 08:45:12;;;;;;;19.75;11.73;;;12.00;69.40;;;;;;6307882;22;20013;-95
2022/11/18 08:47:38;;;;;;;16.98;10.70;;;12.10;69.40;;;;;;6304299;22;20019;-93
2022/11/18 08:50:06;;;;;;;17.50;11.35;;;12.20;69.40;;;;;;6287734;22;20101;-95
2022/11/18 08:52:32;;;;;;;19.45;12.18;;;12.30;69.40;;;;;;6285088;22;20073;-93
2022/11/18 08:54:58;;;;;;;16.63;11.13;;;12.30;69.00;;;;;;6285007;22;20343;-93
2022/11/18 08:57:24;;;;;;;20.45;11.13;;;12.40;68.90;;;;;;6284402;22;20384;-94
2022/11/18 08:59:50;;;;;;;17.50;10.20;;;12.50;69.00;;;;;;6287260;22;20064;-92
2022/11/18 09:02:19;;;;;;;26.48;14.88;;;12.50;69.20;;;;;;6303652;22;20014;-91
2022/11/18 09:04:46;;;;;;;21.75;13.73;;;12.60;69.20;;;;;;6306816;22;19991;-94
2022/11/18 09:07:12;;;;;;;17.80;12.07;;;12.60;68.60;;;;;;6295289;22;20307;-93
2022/11/18 09:09:38;;;;;;;20.48;12.20;;;12.70;68.60;;;;;;6287764;22;20007;-94
2022/11/18 09:12:04;;;;;;;17.42;11.32;;;12.80;68.50;;;;;;6288303;22;20011;-93
2022/11/18 09:14:30;;;;;;;16.48;11.02;;;12.80;68.40;;;;;;6288277;22;20437;-93
2022/11/18 09:16:56;;;;;;;16.70;10.95;;;12.80;68.10;;;;;;6289633;22;19999;-94
2022/11/18 09:19:21;;;;;;;17.67;11.23;;;12.80;67.80;;;;;;6304658;22;20024;-93
2022/11/18 09:21:47;;;;;;;18.77;11.25;;;12.90;67.80;;;;;;6309274;22;19987;-92
2022/11/18 09:24:13;;;;;;;15.13;9.82;;;12.90;67.60;;;;;;6307429;22;20007;-93
2022/11/18 09:26:39;;;;;;;16.95;10.48;;;12.90;67.30;;;;;;6292027;22;20007;-93
2022/11/18 09:29:05;;;;;;;17.30;11.00;;;12.90;67.50;;;;;;6286768;22;20439;-94
2022/11/18 09:31:31;;;;;;;16.30;10.95;;;12.90;67.50;;;;;;6283399;22;20015;-93
2022/11/18 09:34:00;;;;;;;15.60;9.85;;;12.90;67.70;;;;;;6284242;22;20004;-92
2022/11/18 09:36:26;;;;;;;17.15;10.57;;;12.90;68.00;;;;;;6283599;22;20007;-93
2022/11/18 09:38:52;;;;;;;18.45;11.55;;;12.90;68.30;;;;;;6283013;22;20042;-93
2022/11/18 09:41:40;;;;;;;18.30;10.55;;;12.90;68.40;;;;;;6283101;22;20008;-92
2022/11/18 09:44:16;;;;;;;13.60;9.60;;;13.00;68.10;;;;;;6283525;22;20003;-93
2022/11/18 09:47:02;;;;;;;18.75;11.35;;;13.00;68.30;;;;;;6281112;22;20082;-95
2022/11/18 09:49:32;;;;;;;16.42;10.15;;;13.00;68.30;;;;;;6252858;22;20142;-92
2022/11/18 09:52:04;;;;;;;16.48;10.30;;;13.00;68.50;;;;;;6253843;22;20432;-92
2022/11/18 09:54:34;;;;;;;16.30;10.27;;;13.00;68.60;;;;;;6258011;22;20004;-93
2022/11/18 09:57:00;;;;;;;14.52;10.27;;;13.10;68.60;;;;;;6253397;22;20391;-92
2022/11/18 09:59:29;;;;;;;17.13;10.65;;;13.10;68.60;;;;;;6252502;22;20106;-91
2022/11/18 10:02:35;;;;;;;13.93;9.63;;;13.10;68.60;;;;;;6252442;22;20011;-92
2022/11/18 10:05:18;;;;;;;13.35;9.15;;;13.10;68.40;;;;;;6248455;22;20011;-92
2022/11/18 10:08:11;;;;;;;15.55;9.75;;;13.10;68.30;;;;;;6255167;22;20004;-93
2022/11/18 10:10:50;;;;;;;15.45;9.40;;;13.20;68.50;;;;;;6257828;22;20034;-94
2022/11/18 10:14:00;;;;;;;18.58;10.13;;;13.20;68.40;;;;;;6259883;22;20007;-93
2022/11/18 10:16:34;;;;;;;13.90;8.70;;;13.20;68.00;;;;;;6184122;22;20015;-92
2022/11/18 10:19:19;;;;;;;12.10;8.27;;;13.20;68.10;;;;;;6258700;22;20431;-93
2022/11/18 10:21:56;;;;;;;17.65;8.85;;;13.20;68.00;;;;;;6258408;22;20106;-95
2022/11/18 10:24:25;;;;;;;18.00;9.27;;;13.20;68.20;;;;;;6257831;22;20032;-95
2022/11/18 10:26:56;;;;;;;15.90;10.00;;;13.20;68.40;;;;;;6256703;22;20016;-93
2022/11/18 10:29:22;;;;;;;13.57;9.57;;;13.20;68.50;;;;;;6256235;22;20039;-94
2022/11/18 10:32:07;;;;;;;14.00;8.93;;;13.20;68.40;;;;;;6256556;22;20070;-93
2022/11/18 10:34:44;;;;;;;16.27;9.57;;;13.20;68.10;;;;;;6256553;22;20025;-93
2022/11/18 10:37:32;;;;;;;11.82;7.60;;;13.20;68.40;;;;;;6257965;22;20091;-93
2022/11/18 10:40:00;;;;;;;11.85;8.10;;;13.30;68.80;;;;;;6257868;22;20004;-94
2022/11/18 10:42:47;;;;;;;15.77;8.63;;;13.30;68.80;;;;;;6280249;22;19991;-94
2022/11/18 10:45:25;;;;;;;12.32;8.52;;;13.30;68.70;;;;;;6270243;22;20012;-93
2022/11/18 10:48:16;;;;;;;14.73;8.60;;;13.40;68.40;;;;;;6271616;22;20098;-93
2022/11/18 10:50:49;;;;;;;12.88;8.48;;;13.40;68.10;;;;;;6285792;22;20011;-93
2022/11/18 10:53:34;;;;;;;14.52;8.57;;;13.40;68.20;;;;;;6285675;22;19999;-93
2022/11/18 10:56:02;;;;;;;14.90;7.45;;;13.40;68.20;;;;;;6286546;22;20015;-93
2022/11/18 10:58:31;;;;;;;10.27;6.63;;;13.30;67.80;;;;;;6286547;22;20007;-94
2022/11/18 11:01:21;;;;;;;11.00;7.20;;;13.40;67.90;;;;;;6286431;22;20007;-94
2022/11/18 11:04:03;;;;;;;12.10;7.47;;;13.40;68.10;;;;;;6287373;22;20484;-92
2022/11/18 11:06:30;;;;;;;7.85;6.07;;;13.40;67.90;;;;;;6288801;22;20007;-93
2022/11/18 11:09:00;;;;;;;10.38;6.32;;;13.40;68.10;;;;;;6285902;22;20003;-93
2022/11/18 11:11:42;;;;;;;8.10;5.82;;;13.40;68.00;;;;;;6285646;22;20422;-93
2022/11/18 11:14:36;;;;;;;7.95;5.00;;;13.40;68.00;;;;;;6286334;22;19999;-93
2022/11/18 11:17:10;;;;;;;8.93;5.90;;;13.50;68.10;;;;;;6286542;22;20439;-94
2022/11/18 11:19:45;;;;;;;8.10;5.03;;;13.50;67.80;;;;;;6285282;22;20000;-92
2022/11/18 11:22:12;;;;;;;11.88;7.43;;;13.50;67.90;;;;;;6286034;22;20003;-93
2022/11/18 11:24:38;;;;;;;9.70;5.28;;;13.50;68.00;;;;;;6260880;22;20007;-93
2022/11/18 11:27:21;;;;;;;7.43;5.10;;;13.50;68.20;;;;;;6285614;22;20010;-93
2022/11/18 11:30:06;;;;;;;6.10;4.43;;;13.60;68.30;;;;;;6286103;22;20011;-94
2022/11/18 11:32:49;;;;;;;7.07;4.63;;;13.60;68.70;;;;;;6286723;22;20046;-93
2022/11/18 11:35:21;;;;;;;5.82;4.03;;;13.70;68.40;;;;;;6285974;22;20020;-93
2022/11/18 11:38:18;;;;;;;8.15;5.53;;;13.70;68.30;;;;;;6290426;22;20056;-92
2022/11/18 11:40:56;;;;;;;6.28;4.10;;;13.70;67.80;;;;;;6230966;22;20007;-93
2022/11/18 11:43:53;;;;;;;10.00;4.40;;;13.80;67.80;;;;;;6289220;22;20308;-93
2022/11/18 11:49:52;;;;;;;5.93;3.97;;;13.90;68.30;;;;;;6315270;22;20053;-93
2022/11/18 11:52:39;;;;;;;5.50;3.90;;;13.90;68.00;;;;;;6287483;22;20007;-93
2022/11/18 11:55:16;;;;;;;6.97;3.90;;;13.90;67.70;;;;;;6286962;22;19999;-92
2022/11/18 11:58:06;;;;;;;5.60;3.83;;;14.00;67.40;;;;;;6286467;22;20029;-93
2022/11/18 12:00:38;;;;;;;5.93;3.90;;;13.90;67.50;;;;;;6315181;22;19999;-94
2022/11/18 12:03:42;;;;;;;5.93;3.70;;;14.00;67.60;;;;;;6286887;22;20003;-93
2022/11/18 12:06:12;;;;;;;5.70;3.35;;;14.00;67.50;;;;;;6288296;22;20011;-94
2022/11/18 12:08:58;;;;;;;6.97;4.13;;;14.00;67.20;;;;;;6285186;22;20003;-95
2022/11/18 12:11:42;;;;;;;7.22;4.07;;;14.00;66.90;;;;;;6287094;22;20472;-94
2022/11/18 12:14:30;;;;;;;5.75;3.42;;;13.90;66.80;;;;;;6286035;22;20003;-94
2022/11/18 12:17:16;;;;;;;5.03;3.13;;;13.90;66.90;;;;;;6285728;22;20010;-94
2022/11/18 12:19:41;;;;;;;4.22;2.67;;;13.90;66.70;;;;;;6286064;22;20026;-93
2022/11/18 12:22:07;;;;;;;5.55;3.20;;;13.90;66.70;;;;;;6284932;22;20003;-94
2022/11/18 12:24:39;;;;;;;3.60;2.30;;;13.90;66.70;;;;;;6286004;22;19999;-94
2022/11/18 12:27:06;;;;;;;2.70;1.88;;;13.80;66.30;;;;;;6285310;22;20038;-93
2022/11/18 12:29:47;;;;;;;4.82;1.60;;;13.80;66.40;;;;;;6286552;22;20015;-93
2022/11/18 12:32:35;;;;;;;3.88;1.88;;;13.80;66.30;;;;;;6287838;22;20019;-94
2022/11/18 12:35:23;;;;;;;3.80;1.40;;;13.80;66.30;;;;;;6304740;22;19992;-94
2022/11/18 12:37:51;;;;;;;1.20;0.90;;;13.80;65.90;;;;;;6304248;22;20011;-94
2022/11/18 12:40:45;;;;;;;2.30;1.17;;;13.80;66.00;;;;;;6291938;22;20111;-92
2022/11/18 12:43:46;;;;;;;2.53;0.90;;;13.80;65.90;;;;;;6261596;22;20004;-93
2022/11/18 12:46:33;;;;;;;2.35;1.00;;;13.80;65.30;;;;;;6230763;22;20003;-94
2022/11/18 12:49:21;;;;;;;2.38;0.93;;;13.80;65.20;;;;;;6301770;22;20011;-94
2022/11/18 12:51:49;;;;;;;0.60;0.50;;;13.80;65.20;;;;;;6293729;22;20022;-95
2022/11/18 12:54:23;;;;;;;1.30;0.80;;;13.70;64.80;;;;;;6294250;22;19998;-92
2022/11/18 12:56:50;;;;;;;4.43;0.68;;;13.80;65.10;;;;;;6307718;22;19988;-92
2022/11/18 12:59:15;;;;;;;1.77;0.77;;;13.80;65.10;;;;;;6308906;22;20003;-93
2022/11/18 13:01:41;;;;;;;0.90;0.50;;;13.80;65.10;;;;;;6308068;22;20047;-96
2022/11/18 13:04:12;;;;;;;4.38;0.60;;;13.80;64.90;;;;;;6303463;22;20014;-94
2022/11/18 13:06:40;;;;;;;1.20;0.70;;;13.80;64.30;;;;;;6293629;22;20042;-94
2022/11/18 13:09:17;;;;;;;2.55;0.47;;;13.80;64.40;;;;;;6306640;22;20013;-94
2022/11/18 13:11:52;;;;;;;0.98;0.60;;;13.80;64.00;;;;;;6302356;22;20011;-94